createdAt,value
2023-03-29T00:01:00.991Z,97501.81
2023-03-29T00:02:03.999Z,97500.38
2023-03-29T00:03:06.320Z,97504.94
2023-03-29T00:04:10.427Z,97505.22
2023-03-29T00:05:13.453Z,97502.50
2023-03-29T00:06:22.648Z,97503.16
2023-03-29T00:07:26.379Z,97507.94
2023-03-29T00:08:29.910Z,97507.69
2023-03-29T00:09:36.183Z,97504.03
2023-03-29T00:10:38.110Z,97505.81
2023-03-29T00:11:40.361Z,97502.31
2023-03-29T00:12:42.370Z,97504.59
2023-03-29T00:13:44.775Z,97502.53
2023-03-29T00:14:46.566Z,97507.94
2023-03-29T00:15:48.575Z,97506.44
2023-03-29T00:16:50.706Z,97496.84
2023-03-29T00:17:52.754Z,97507.69
2023-03-29T00:18:55.783Z,97497.63
2023-03-29T00:19:58.161Z,97494.47
2023-03-29T00:21:01.273Z,97495.41
2023-03-29T00:22:06.891Z,97491.09
2023-03-29T00:23:08.982Z,97495.41
2023-03-29T00:24:11.039Z,97497.50
2023-03-29T00:25:14.148Z,97495.41
2023-03-29T00:26:16.301Z,97505.31
2023-03-29T00:27:18.293Z,97496.66
2023-03-29T00:28:20.479Z,97488.94
2023-03-29T00:29:22.510Z,97498.81
2023-03-29T00:30:24.532Z,97493.28
2023-03-29T00:31:27.655Z,97490.09
2023-03-29T00:32:29.772Z,97492.09
2023-03-29T00:33:32.446Z,97483.63
2023-03-29T00:34:36.484Z,97484.31
2023-03-29T00:35:39.756Z,97485.34
2023-03-29T00:36:41.700Z,97482.78
2023-03-29T00:37:43.790Z,97482.50
2023-03-29T00:38:45.876Z,97484.13
2023-03-29T00:39:48.425Z,97482.38
2023-03-29T00:40:50.413Z,97487.94
2023-03-29T00:41:52.486Z,97472.50
2023-03-29T00:42:56.515Z,97481.41
2023-03-29T00:44:01.366Z,97473.03
2023-03-29T00:45:10.481Z,97473.19
2023-03-29T00:46:12.467Z,97477.63
2023-03-29T00:47:14.578Z,97476.25
2023-03-29T00:48:27.468Z,97473.25
2023-03-29T00:49:29.852Z,97476.50
2023-03-29T00:50:39.813Z,97478.81
2023-03-29T00:51:42.883Z,97476.78
2023-03-29T00:52:55.253Z,97477.75
2023-03-29T00:54:02.111Z,97477.88
2023-03-29T00:55:11.731Z,97475.19
2023-03-29T00:56:23.091Z,97476.28
2023-03-29T00:57:27.938Z,97479.63
2023-03-29T00:58:38.509Z,97477.31
2023-03-29T00:59:43.024Z,97482.81
2023-03-29T01:00:55.661Z,97482.03
2023-03-29T01:02:02.396Z,97475.25
2023-03-29T01:03:13.978Z,97478.88
2023-03-29T01:04:29.692Z,97479.50
2023-03-29T01:05:38.167Z,97475.34
2023-03-29T01:06:43.923Z,97482.59
2023-03-29T01:08:11.313Z,97482.34
2023-03-29T01:09:16.724Z,97482.88
2023-03-29T01:10:39.975Z,97478.31
2023-03-29T01:11:47.794Z,97483.34
2023-03-29T01:12:56.615Z,97484.41
2023-03-29T01:14:35.761Z,97479.91
2023-03-29T01:15:41.373Z,97480.13
2023-03-29T01:16:43.470Z,97477.34
2023-03-29T01:17:51.065Z,97481.09
2023-03-29T01:18:53.234Z,97476.88
2023-03-29T01:20:10.918Z,97473.38
2023-03-29T01:21:33.752Z,97477.72
2023-03-29T01:22:56.103Z,97475.84
2023-03-29T01:24:25.071Z,97467.19
2023-03-29T01:25:34.834Z,97470.81
2023-03-29T01:27:15.857Z,97471.50
2023-03-29T01:28:34.730Z,97462.34
2023-03-29T01:29:47.304Z,97469.94
2023-03-29T01:31:07.319Z,97460.91
2023-03-29T01:32:39.742Z,97454.91
2023-03-29T01:33:48.936Z,97460.66
2023-03-29T01:35:04.254Z,97463.13
2023-03-29T01:36:37.397Z,97463.28
2023-03-29T01:38:07.544Z,97453.31
2023-03-29T01:39:09.581Z,97459.94
2023-03-29T01:40:12.365Z,97458.56
2023-03-29T01:41:15.019Z,97465.59
2023-03-29T01:42:31.969Z,97462.53
2023-03-29T01:43:37.441Z,97464.97
2023-03-29T01:44:49.208Z,97465.16
2023-03-29T01:46:14.258Z,97461.09
2023-03-29T01:47:36.391Z,97461.78
2023-03-29T01:48:51.159Z,97457.88
2023-03-29T01:50:18.279Z,97473.28
2023-03-29T01:51:36.130Z,97468.41
2023-03-29T01:52:53.295Z,97455.31
2023-03-29T01:54:01.819Z,97450.69
2023-03-29T01:55:11.241Z,97457.03
2023-03-29T01:56:26.625Z,97454.31
2023-03-29T01:57:31.573Z,97455.13
2023-03-29T01:58:38.558Z,97459.72
2023-03-29T01:59:44.958Z,97456.34
2023-03-29T02:00:47.473Z,97453.50
2023-03-29T02:01:51.166Z,97446.09
2023-03-29T02:02:55.153Z,97446.66
2023-03-29T02:04:03.196Z,97446.41
2023-03-29T02:05:06.974Z,97454.13
2023-03-29T02:06:12.410Z,97446.13
2023-03-29T02:07:17.856Z,97453.53
2023-03-29T02:08:22.610Z,97444.75
2023-03-29T02:09:24.785Z,97447.09
2023-03-29T02:10:28.378Z,97451.66
2023-03-29T02:11:30.811Z,97453.13
2023-03-29T02:12:32.929Z,97454.31
2023-03-29T02:13:36.580Z,97458.00
2023-03-29T02:14:39.153Z,97459.25
2023-03-29T02:15:41.201Z,97459.25
2023-03-29T02:16:43.263Z,97454.63
2023-03-29T02:17:46.562Z,97454.88
2023-03-29T02:18:50.708Z,97462.56
2023-03-29T02:20:23.784Z,97458.97
2023-03-29T02:21:37.157Z,97463.53
2023-03-29T02:22:46.758Z,97457.31
2023-03-29T02:23:50.751Z,97452.75
2023-03-29T02:24:59.487Z,97461.13
2023-03-29T02:26:04.113Z,97454.63
2023-03-29T02:27:06.478Z,97461.88
2023-03-29T02:28:08.691Z,97464.09
2023-03-29T02:29:11.312Z,97454.63
2023-03-29T02:30:14.821Z,97455.44
2023-03-29T02:31:43.163Z,97445.44
2023-03-29T02:33:00.874Z,97446.22
2023-03-29T02:34:09.046Z,97451.63
2023-03-29T02:35:17.418Z,97445.44
2023-03-29T02:36:24.390Z,97446.09
2023-03-29T02:37:30.486Z,97450.28
2023-03-29T02:38:33.444Z,97447.84
2023-03-29T02:39:37.250Z,97449.56
2023-03-29T02:40:42.272Z,97448.19
2023-03-29T02:41:47.668Z,97449.56
2023-03-29T02:42:50.255Z,97443.50
2023-03-29T02:43:54.236Z,97444.75
2023-03-29T02:44:59.364Z,97444.84
2023-03-29T02:46:03.303Z,97438.34
2023-03-29T02:47:17.733Z,97450.50
2023-03-29T02:48:22.073Z,97441.72
2023-03-29T02:49:25.113Z,97435.38
2023-03-29T02:50:30.964Z,97442.69
2023-03-29T02:51:34.464Z,97440.00
2023-03-29T02:52:41.335Z,97439.09
2023-03-29T02:53:50.261Z,97449.50
2023-03-29T02:54:54.758Z,97438.25
2023-03-29T02:55:56.708Z,97444.63
2023-03-29T02:57:01.003Z,97444.75
2023-03-29T02:58:08.502Z,97433.78
2023-03-29T02:59:12.404Z,97438.81
2023-03-29T03:00:19.096Z,97439.44
2023-03-29T03:01:21.261Z,97437.97
2023-03-29T03:02:26.388Z,97427.81
2023-03-29T03:03:29.454Z,97433.22
2023-03-29T03:04:32.282Z,97438.19
2023-03-29T03:05:35.242Z,97444.03
2023-03-29T03:06:38.364Z,97447.16
2023-03-29T03:07:40.920Z,97439.59
2023-03-29T03:08:42.666Z,97442.03
2023-03-29T03:09:44.811Z,97439.97
2023-03-29T03:10:47.129Z,97448.63
2023-03-29T03:11:49.156Z,97449.31
2023-03-29T03:12:51.279Z,97452.69
2023-03-29T03:13:53.246Z,97452.69
2023-03-29T03:14:55.220Z,97441.09
2023-03-29T03:15:57.361Z,97443.28
2023-03-29T03:16:59.911Z,97434.34
2023-03-29T03:18:03.921Z,97416.25
2023-03-29T03:19:06.433Z,97419.22
2023-03-29T03:20:13.953Z,97416.53
2023-03-29T03:21:16.206Z,97421.81
2023-03-29T03:22:18.599Z,97420.06
2023-03-29T03:23:20.443Z,97420.34
2023-03-29T03:24:22.472Z,97419.53
2023-03-29T03:25:24.676Z,97413.56
2023-03-29T03:26:30.447Z,97410.88
2023-03-29T03:27:34.439Z,97418.06
2023-03-29T03:28:36.486Z,97419.59
2023-03-29T03:29:39.153Z,97420.38
2023-03-29T03:30:41.172Z,97427.09
2023-03-29T03:31:43.311Z,97422.25
2023-03-29T03:32:45.352Z,97430.63
2023-03-29T03:33:47.424Z,97438.59
2023-03-29T03:34:49.914Z,97429.50
2023-03-29T03:35:51.830Z,97441.72
2023-03-29T03:36:58.239Z,97433.88
2023-03-29T03:38:00.485Z,97439.72
2023-03-29T03:39:06.036Z,97442.28
2023-03-29T03:40:09.448Z,97434.56
2023-03-29T03:41:11.413Z,97435.38
2023-03-29T03:42:13.332Z,97436.19
2023-03-29T03:43:15.331Z,97443.88
2023-03-29T03:44:17.486Z,97442.53
2023-03-29T03:45:19.528Z,97437.25
2023-03-29T03:46:21.855Z,97437.38
2023-03-29T03:47:24.071Z,97433.75
2023-03-29T03:48:26.586Z,97429.53
2023-03-29T03:49:28.378Z,97428.34
2023-03-29T03:50:30.421Z,97423.88
2023-03-29T03:51:32.446Z,97418.91
2023-03-29T03:52:34.422Z,97430.09
2023-03-29T03:53:36.473Z,97428.88
2023-03-29T03:54:38.502Z,97410.31
2023-03-29T03:55:40.504Z,97411.69
2023-03-29T03:56:42.567Z,97411.72
2023-03-29T03:57:44.895Z,97416.06
2023-03-29T03:58:47.885Z,97414.44
2023-03-29T03:59:49.914Z,97419.81
2023-03-29T04:00:52.146Z,97423.72
2023-03-29T04:01:54.195Z,97412.88
2023-03-29T04:02:56.648Z,97413.56
2023-03-29T04:03:58.663Z,97419.75
2023-03-29T04:05:03.555Z,97420.44
2023-03-29T04:06:06.522Z,97415.00
2023-03-29T04:07:08.899Z,97415.56
2023-03-29T04:08:12.815Z,97405.28
2023-03-29T04:09:14.864Z,97405.16
2023-03-29T04:10:17.386Z,97406.66
2023-03-29T04:11:19.384Z,97400.56
2023-03-29T04:12:21.418Z,97404.09
2023-03-29T04:13:24.493Z,97411.53
2023-03-29T04:14:27.561Z,97407.06
2023-03-29T04:15:30.216Z,97406.78
2023-03-29T04:16:32.243Z,97406.22
2023-03-29T04:17:34.720Z,97411.91
2023-03-29T04:18:36.912Z,97399.50
2023-03-29T04:19:38.992Z,97395.16
2023-03-29T04:20:41.020Z,97394.91
2023-03-29T04:21:45.938Z,97398.28
2023-03-29T04:22:47.950Z,97396.25
2023-03-29T04:23:49.991Z,97403.19
2023-03-29T04:24:52.666Z,97405.25
2023-03-29T04:25:56.834Z,97403.22
2023-03-29T04:26:58.830Z,97402.69
2023-03-29T04:28:00.932Z,97405.94
2023-03-29T04:29:03.035Z,97405.00
2023-03-29T04:30:07.746Z,97404.16
2023-03-29T04:31:14.395Z,97407.94
2023-03-29T04:32:16.409Z,97406.56
2023-03-29T04:33:19.017Z,97403.03
2023-03-29T04:34:21.063Z,97407.50
2023-03-29T04:35:23.434Z,97402.09
2023-03-29T04:36:26.213Z,97402.28
2023-03-29T04:37:29.964Z,97402.66
2023-03-29T04:38:36.286Z,97405.00
2023-03-29T04:39:39.245Z,97397.28
2023-03-29T04:40:41.230Z,97410.91
2023-03-29T04:41:43.308Z,97404.16
2023-03-29T04:42:47.691Z,97404.69
2023-03-29T04:43:49.708Z,97401.88
2023-03-29T04:44:51.804Z,97408.91
2023-03-29T04:45:54.565Z,97399.94
2023-03-29T04:46:56.690Z,97412.69
2023-03-29T04:48:02.364Z,97416.31
2023-03-29T04:49:04.607Z,97413.59
2023-03-29T04:50:08.527Z,97415.13
2023-03-29T04:51:10.514Z,97413.34
2023-03-29T04:52:12.574Z,97409.28
2023-03-29T04:53:14.653Z,97407.41
2023-03-29T04:54:16.692Z,97401.31
2023-03-29T04:55:18.783Z,97407.41
2023-03-29T04:56:20.738Z,97411.88
2023-03-29T04:57:22.844Z,97410.09
2023-03-29T04:58:28.275Z,97412.69
2023-03-29T04:59:34.049Z,97418.50
2023-03-29T05:00:36.134Z,97419.75
2023-03-29T05:01:38.220Z,97415.66
2023-03-29T05:02:40.327Z,97415.66
2023-03-29T05:03:42.412Z,97419.84
2023-03-29T05:04:44.496Z,97413.22
2023-03-29T05:05:46.485Z,97415.41
2023-03-29T05:06:49.264Z,97415.53
2023-03-29T05:07:51.563Z,97417.16
2023-03-29T05:08:53.742Z,97419.75
2023-03-29T05:09:55.738Z,97415.28
2023-03-29T05:10:57.902Z,97418.53
2023-03-29T05:11:59.896Z,97412.56
2023-03-29T05:13:04.240Z,97417.44
2023-03-29T05:14:07.595Z,97419.34
2023-03-29T05:15:10.210Z,97413.38
2023-03-29T05:16:12.423Z,97415.81
2023-03-29T05:17:14.732Z,97415.16
2023-03-29T05:18:16.626Z,97415.59
2023-03-29T05:19:21.987Z,97418.53
2023-03-29T05:20:25.280Z,97415.16
2023-03-29T05:21:28.693Z,97414.06
2023-03-29T05:22:31.701Z,97408.66
2023-03-29T05:23:34.612Z,97409.91
2023-03-29T05:24:36.719Z,97409.09
2023-03-29T05:25:38.820Z,97411.25
2023-03-29T05:26:40.780Z,97421.03
2023-03-29T05:27:43.541Z,97414.22
2023-03-29T05:28:46.283Z,97410.59
2023-03-29T05:29:49.231Z,97414.78
2023-03-29T05:31:02.715Z,97412.09
2023-03-29T05:32:05.190Z,97411.81
2023-03-29T05:33:07.439Z,97403.84
2023-03-29T05:34:09.421Z,97404.38
2023-03-29T05:35:12.003Z,97399.63
2023-03-29T05:36:15.832Z,97398.56
2023-03-29T05:37:18.132Z,97401.81
2023-03-29T05:38:20.116Z,97400.44
2023-03-29T05:39:22.086Z,97394.59
2023-03-29T05:40:27.437Z,97390.69
2023-03-29T05:41:29.580Z,97394.91
2023-03-29T05:42:31.864Z,97392.59
2023-03-29T05:43:33.996Z,97392.47
2023-03-29T05:44:35.956Z,97392.88
2023-03-29T05:45:37.958Z,97398.56
2023-03-29T05:46:40.019Z,97399.91
2023-03-29T05:47:42.017Z,97384.72
2023-03-29T05:48:44.340Z,97381.09
2023-03-29T05:49:46.579Z,97392.56
2023-03-29T05:50:50.292Z,97386.91
2023-03-29T05:51:52.614Z,97392.06
2023-03-29T05:52:54.589Z,97392.19
2023-03-29T05:53:56.855Z,97382.44
2023-03-29T05:54:58.932Z,97382.84
2023-03-29T05:56:02.536Z,97383.91
2023-03-29T05:57:04.874Z,97388.25
2023-03-29T05:58:07.113Z,97386.22
2023-03-29T05:59:09.117Z,97386.63
2023-03-29T06:00:24.341Z,97382.03
2023-03-29T06:01:26.756Z,97384.47
2023-03-29T06:02:28.922Z,97389.59
2023-03-29T06:03:31.238Z,97379.31
2023-03-29T06:04:33.913Z,97383.91
2023-03-29T06:05:37.116Z,97379.44
2023-03-29T06:06:39.194Z,97383.50
2023-03-29T06:07:41.217Z,97383.66
2023-03-29T06:08:44.687Z,97387.97
2023-03-29T06:09:46.666Z,97385.41
2023-03-29T06:10:49.671Z,97378.66
2023-03-29T06:11:52.077Z,97381.75
2023-03-29T06:12:54.024Z,97377.81
2023-03-29T06:13:56.040Z,97381.75
2023-03-29T06:15:03.497Z,97385.97
2023-03-29T06:16:06.725Z,97389.34
2023-03-29T06:17:08.769Z,97389.34
2023-03-29T06:18:11.265Z,97387.84
2023-03-29T06:19:13.160Z,97380.25
2023-03-29T06:20:15.336Z,97391.34
2023-03-29T06:21:17.351Z,97394.59
2023-03-29T06:22:19.400Z,97392.72
2023-03-29T06:23:22.818Z,97390.69
2023-03-29T06:24:25.261Z,97393.00
2023-03-29T06:25:27.120Z,97392.72
2023-03-29T06:26:29.473Z,97397.19
2023-03-29T06:27:31.803Z,97395.28
2023-03-29T06:28:33.820Z,97392.03
2023-03-29T06:29:36.071Z,97397.19
2023-03-29T06:30:39.562Z,97396.09
2023-03-29T06:31:42.556Z,97395.00
2023-03-29T06:32:44.902Z,97397.56
2023-03-29T06:33:47.801Z,97401.50
2023-03-29T06:34:50.261Z,97396.75
2023-03-29T06:35:52.248Z,97399.75
2023-03-29T06:36:55.190Z,97398.66
2023-03-29T06:37:57.091Z,97396.09
2023-03-29T06:38:59.731Z,97401.25
2023-03-29T06:40:03.353Z,97398.28
2023-03-29T06:41:08.189Z,97406.50
2023-03-29T06:42:20.475Z,97396.38
2023-03-29T06:43:23.354Z,97398.28
2023-03-29T06:44:28.553Z,97401.22
2023-03-29T06:45:38.930Z,97402.31
2023-03-29T06:46:41.035Z,97407.47
2023-03-29T06:47:43.164Z,97402.97
2023-03-29T06:48:46.126Z,97405.00
2023-03-29T06:49:48.161Z,97398.09
2023-03-29T06:50:50.501Z,97400.16
2023-03-29T06:51:53.200Z,97396.63
2023-03-29T06:52:55.148Z,97402.56
2023-03-29T06:53:57.183Z,97411.91
2023-03-29T06:55:01.895Z,97403.41
2023-03-29T06:56:09.644Z,97398.09
2023-03-29T06:57:13.397Z,97399.63
2023-03-29T06:58:15.714Z,97393.38
2023-03-29T06:59:18.292Z,97402.22
2023-03-29T07:00:28.309Z,97397.06
2023-03-29T07:01:30.471Z,97384.19
2023-03-29T07:02:32.499Z,97386.09
2023-03-29T07:03:35.593Z,97393.66
2023-03-29T07:04:37.571Z,97395.00
2023-03-29T07:05:42.917Z,97393.00
2023-03-29T07:06:48.585Z,97389.59
2023-03-29T07:08:08.465Z,97388.66
2023-03-29T07:09:13.286Z,97391.75
2023-03-29T07:10:15.299Z,97388.13
2023-03-29T07:11:19.085Z,97390.41
2023-03-29T07:12:23.178Z,97384.47
2023-03-29T07:13:26.559Z,97382.81
2023-03-29T07:14:31.698Z,97385.56
2023-03-29T07:15:34.351Z,97378.38
2023-03-29T07:16:37.881Z,97370.38
2023-03-29T07:17:39.977Z,97373.22
2023-03-29T07:18:44.321Z,97376.03
2023-03-29T07:19:47.099Z,97379.97
2023-03-29T07:20:49.595Z,97377.69
2023-03-29T07:21:53.666Z,97372.56
2023-03-29T07:22:55.633Z,97373.09
2023-03-29T07:24:00.667Z,97373.78
2023-03-29T07:25:02.647Z,97364.16
2023-03-29T07:26:08.238Z,97370.25
2023-03-29T07:27:10.390Z,97372.53
2023-03-29T07:28:13.117Z,97370.38
2023-03-29T07:29:16.680Z,97370.94
2023-03-29T07:30:23.059Z,97374.31
2023-03-29T07:31:25.063Z,97366.59
2023-03-29T07:32:28.558Z,97366.59
2023-03-29T07:33:30.802Z,97370.50
2023-03-29T07:34:33.505Z,97365.25
2023-03-29T07:35:36.376Z,97370.50
2023-03-29T07:36:39.419Z,97367.69
2023-03-29T07:37:43.117Z,97372.53
2023-03-29T07:38:45.243Z,97379.84
2023-03-29T07:39:47.907Z,97373.75
2023-03-29T07:40:49.934Z,97370.66
2023-03-29T07:41:51.967Z,97367.13
2023-03-29T07:42:56.881Z,97367.94
2023-03-29T07:43:59.208Z,97374.88
2023-03-29T07:45:01.613Z,97366.97
2023-03-29T07:46:05.135Z,97368.50
2023-03-29T07:47:07.145Z,97366.59
2023-03-29T07:48:09.308Z,97364.69
2023-03-29T07:49:11.298Z,97365.22
2023-03-29T07:50:14.760Z,97364.16
2023-03-29T07:51:17.506Z,97363.06
2023-03-29T07:52:19.491Z,97369.56
2023-03-29T07:53:22.053Z,97371.69
2023-03-29T07:54:24.200Z,97362.22
2023-03-29T07:55:26.403Z,97357.22
2023-03-29T07:56:28.361Z,97369.00
2023-03-29T07:57:30.570Z,97358.16
2023-03-29T07:58:32.613Z,97350.84
2023-03-29T07:59:34.564Z,97359.94
2023-03-29T08:00:36.522Z,97358.69
2023-03-29T08:01:39.465Z,97364.66
2023-03-29T08:02:50.001Z,97352.44
2023-03-29T08:03:52.752Z,97354.75
2023-03-29T08:04:54.934Z,97362.75
2023-03-29T08:05:57.102Z,97362.75
2023-03-29T08:06:59.093Z,97351.38
2023-03-29T08:08:01.218Z,97356.38
2023-03-29T08:09:03.261Z,97349.19
2023-03-29T08:10:05.890Z,97351.09
2023-03-29T08:11:09.142Z,97351.66
2023-03-29T08:12:11.241Z,97355.19
2023-03-29T08:13:13.653Z,97347.06
2023-03-29T08:14:15.724Z,97344.22
2023-03-29T08:15:17.890Z,97350.56
2023-03-29T08:16:19.959Z,97347.84
2023-03-29T08:17:22.579Z,97355.72
2023-03-29T08:18:24.543Z,97358.97
2023-03-29T08:19:27.324Z,97359.78
2023-03-29T08:20:29.368Z,97349.19
2023-03-29T08:21:32.162Z,97368.31
2023-03-29T08:22:34.856Z,97365.88
2023-03-29T08:23:36.973Z,97361.41
2023-03-29T08:24:39.083Z,97366.28
2023-03-29T08:25:41.705Z,97369.53
2023-03-29T08:26:43.765Z,97365.72
2023-03-29T08:27:45.726Z,97371.44
2023-03-29T08:28:47.850Z,97365.19
2023-03-29T08:29:49.848Z,97368.00
2023-03-29T08:30:53.011Z,97360.94
2023-03-29T08:31:56.711Z,97365.00
2023-03-29T08:32:58.895Z,97368.13
2023-03-29T08:34:01.110Z,97361.34
2023-03-29T08:35:07.662Z,97370.16
2023-03-29T08:36:10.472Z,97374.13
2023-03-29T08:37:12.701Z,97386.84
2023-03-29T08:38:15.080Z,97372.72
2023-03-29T08:39:18.497Z,97359.44
2023-03-29T08:40:28.510Z,97360.34
2023-03-29T08:41:57.970Z,97370.66
2023-03-29T08:43:12.611Z,97366.72
2023-03-29T08:44:43.788Z,97361.00
2023-03-29T08:46:35.325Z,97374.56
2023-03-29T08:47:57.045Z,97362.91
2023-03-29T08:49:04.474Z,97360.69
2023-03-29T08:50:07.729Z,97358.56
2023-03-29T08:51:19.850Z,97356.38
2023-03-29T08:52:38.932Z,97358.41
2023-03-29T08:53:47.168Z,97360.78
2023-03-29T08:54:54.022Z,97356.72
2023-03-29T08:55:59.369Z,97354.94
2023-03-29T08:57:10.791Z,97351.13
2023-03-29T08:58:17.981Z,97356.81
2023-03-29T08:59:29.963Z,97357.72
2023-03-29T09:00:43.161Z,97353.63
2023-03-29T09:01:48.029Z,97351.69
2023-03-29T09:02:54.190Z,97356.59
2023-03-29T09:04:10.321Z,97350.72
2023-03-29T09:05:29.785Z,97348.84
2023-03-29T09:06:31.879Z,97348.69
2023-03-29T09:07:34.055Z,97355.63
2023-03-29T09:08:42.777Z,97359.97
2023-03-29T09:09:45.246Z,97355.47
2023-03-29T09:10:59.798Z,97358.88
2023-03-29T09:12:17.398Z,97354.22
2023-03-29T09:13:30.254Z,97355.03
2023-03-29T09:14:56.873Z,97354.50
2023-03-29T09:16:06.358Z,97354.50
2023-03-29T09:17:20.357Z,97345.97
2023-03-29T09:18:27.205Z,97348.03
2023-03-29T09:19:39.647Z,97350.06
2023-03-29T09:20:51.557Z,97356.94
2023-03-29T09:22:05.835Z,97345.69
2023-03-29T09:23:47.457Z,97338.84
2023-03-29T09:25:14.402Z,97336.47
2023-03-29T09:26:46.035Z,97338.63
2023-03-29T09:27:57.172Z,97332.66
2023-03-29T09:29:19.006Z,97338.63
2023-03-29T09:30:26.831Z,97340.53
2023-03-29T09:31:41.901Z,97339.38
2023-03-29T09:32:54.209Z,97346.00
2023-03-29T09:34:14.561Z,97334.88
2023-03-29T09:35:32.342Z,97332.97
2023-03-29T09:36:42.807Z,97328.81
2023-03-29T09:37:48.018Z,97328.41
2023-03-29T09:38:54.488Z,97330.97
2023-03-29T09:39:57.978Z,97325.50
2023-03-29T09:41:07.284Z,97325.66
2023-03-29T09:42:12.267Z,97329.19
2023-03-29T09:43:18.669Z,97330.81
2023-03-29T09:44:31.166Z,97328.75
2023-03-29T09:45:35.823Z,97329.41
2023-03-29T09:46:41.485Z,97337.97
2023-03-29T09:48:19.551Z,97319.63
2023-03-29T09:49:26.016Z,97319.97
2023-03-29T09:50:34.226Z,97332.53
2023-03-29T09:51:37.749Z,97329.94
2023-03-29T09:52:39.841Z,97318.50
2023-03-29T09:53:41.843Z,97318.03
2023-03-29T09:54:44.675Z,97324.38
2023-03-29T09:55:51.134Z,97319.88
2023-03-29T09:56:53.443Z,97309.56
2023-03-29T09:57:58.310Z,97308.31
2023-03-29T09:59:01.040Z,97317.88
2023-03-29T10:00:05.983Z,97321.94
2023-03-29T10:01:11.262Z,97317.81
2023-03-29T10:02:14.323Z,97312.50
2023-03-29T10:03:24.073Z,97314.75
2023-03-29T10:04:26.332Z,97315.94
2023-03-29T10:05:30.293Z,97312.56
2023-03-29T10:06:34.600Z,97318.19
2023-03-29T10:07:46.539Z,97310.31
2023-03-29T10:08:57.908Z,97310.78
2023-03-29T10:10:00.622Z,97302.69
2023-03-29T10:11:07.890Z,97314.53
2023-03-29T10:12:11.996Z,97311.78
2023-03-29T10:13:16.838Z,97324.19
2023-03-29T10:14:20.848Z,97314.00
2023-03-29T10:15:29.174Z,97310.78
2023-03-29T10:16:35.396Z,97303.53
2023-03-29T10:17:40.902Z,97309.34
2023-03-29T10:18:43.223Z,97315.78
2023-03-29T10:19:50.144Z,97296.72
2023-03-29T10:20:58.108Z,97308.22
2023-03-29T10:22:00.897Z,97312.94
2023-03-29T10:23:02.847Z,97304.91
2023-03-29T10:24:04.867Z,97306.50
2023-03-29T10:25:13.670Z,97299.88
2023-03-29T10:26:24.287Z,97309.41
2023-03-29T10:27:29.437Z,97304.53
2023-03-29T10:28:32.288Z,97308.09
2023-03-29T10:29:39.031Z,97291.56
2023-03-29T10:30:40.887Z,97296.22
2023-03-29T10:31:43.378Z,97301.56
2023-03-29T10:32:45.270Z,97299.41
2023-03-29T10:33:51.637Z,97289.75
2023-03-29T10:34:53.944Z,97291.06
2023-03-29T10:35:57.584Z,97302.88
2023-03-29T10:37:00.404Z,97296.59
2023-03-29T10:38:04.946Z,97285.78
2023-03-29T10:39:07.145Z,97280.47
2023-03-29T10:40:19.141Z,97282.13
2023-03-29T10:41:23.540Z,97295.69
2023-03-29T10:42:26.598Z,97289.69
2023-03-29T10:43:39.188Z,97291.84
2023-03-29T10:44:41.455Z,97292.31
2023-03-29T10:45:43.918Z,97284.28
2023-03-29T10:46:46.809Z,97285.88
2023-03-29T10:47:48.834Z,97285.06
2023-03-29T10:48:52.074Z,97282.97
2023-03-29T10:49:59.119Z,97277.97
2023-03-29T10:51:02.285Z,97283.19
2023-03-29T10:52:07.202Z,97286.28
2023-03-29T10:53:19.873Z,97286.00
2023-03-29T10:54:24.378Z,97276.78
2023-03-29T10:55:28.709Z,97274.06
2023-03-29T10:56:33.463Z,97281.94
2023-03-29T10:57:50.548Z,97277.63
2023-03-29T10:58:58.439Z,97272.44
2023-03-29T11:00:00.215Z,97288.59
2023-03-29T11:01:03.312Z,97280.50
2023-03-29T11:02:14.664Z,97280.34
2023-03-29T11:03:22.376Z,97278.28
2023-03-29T11:04:27.658Z,97271.47
2023-03-29T11:05:48.314Z,97273.56
2023-03-29T11:06:59.236Z,97271.66
2023-03-29T11:08:13.101Z,97278.44
2023-03-29T11:09:14.849Z,97276.34
2023-03-29T11:10:35.423Z,97274.56
2023-03-29T11:12:04.451Z,97258.56
2023-03-29T11:13:25.024Z,97259.38
2023-03-29T11:14:42.279Z,97269.41
2023-03-29T11:15:51.715Z,97268.44
2023-03-29T11:17:01.682Z,97260.03
2023-03-29T11:18:09.726Z,97260.69
2023-03-29T11:19:12.820Z,97274.91
2023-03-29T11:20:20.860Z,97272.31
2023-03-29T11:21:36.403Z,97267.66
2023-03-29T11:22:44.910Z,97261.53
2023-03-29T11:23:47.224Z,97252.78
2023-03-29T11:24:51.989Z,97264.13
2023-03-29T11:26:01.176Z,97262.50
2023-03-29T11:27:23.095Z,97253.78
2023-03-29T11:28:29.092Z,97252.66
2023-03-29T11:29:49.315Z,97253.94
2023-03-29T11:31:09.762Z,97257.31
2023-03-29T11:32:11.677Z,97259.91
2023-03-29T11:33:20.745Z,97246.03
2023-03-29T11:34:29.149Z,97243.94
2023-03-29T11:35:45.840Z,97248.94
2023-03-29T11:36:59.590Z,97256.38
2023-03-29T11:38:10.597Z,97254.09
2023-03-29T11:39:12.401Z,97253.16
2023-03-29T11:40:20.207Z,97254.09
2023-03-29T11:41:25.399Z,97263.50
2023-03-29T11:42:29.754Z,97252.50
2023-03-29T11:43:32.453Z,97247.19
2023-03-29T11:44:35.885Z,97248.94
2023-03-29T11:45:47.062Z,97246.84
2023-03-29T11:46:51.996Z,97250.22
2023-03-29T11:47:55.040Z,97247.34
2023-03-29T11:49:02.953Z,97256.06
2023-03-29T11:50:08.045Z,97245.56
2023-03-29T11:51:13.187Z,97233.94
2023-03-29T11:52:33.968Z,97234.72
2023-03-29T11:53:39.771Z,97242.31
2023-03-29T11:54:45.084Z,97249.94
2023-03-29T11:55:48.563Z,97247.81
2023-03-29T11:56:55.244Z,97239.88
2023-03-29T11:57:57.061Z,97239.44
2023-03-29T11:59:01.683Z,97240.38
2023-03-29T12:00:12.653Z,97232.31
2023-03-29T12:01:18.083Z,97233.44
2023-03-29T12:02:29.892Z,97227.78
2023-03-29T12:03:46.932Z,97232.13
2023-03-29T12:04:51.775Z,97237.13
2023-03-29T12:06:00.449Z,97236.34
2023-03-29T12:07:09.588Z,97238.59
2023-03-29T12:08:17.149Z,97228.44
2023-03-29T12:09:21.957Z,97228.91
2023-03-29T12:10:27.592Z,97222.13
2023-03-29T12:11:32.128Z,97233.25
2023-03-29T12:12:46.752Z,97232.47
2023-03-29T12:13:54.794Z,97227.78
2023-03-29T12:15:11.079Z,97223.41
2023-03-29T12:16:18.571Z,97221.78
2023-03-29T12:17:23.467Z,97232.78
2023-03-29T12:18:31.020Z,97226.00
2023-03-29T12:19:56.013Z,97227.16
2023-03-29T12:21:02.552Z,97232.78
2023-03-29T12:22:08.215Z,97223.75
2023-03-29T12:23:13.094Z,97225.06
2023-03-29T12:24:16.569Z,97206.63
2023-03-29T12:25:23.318Z,97220.22
2023-03-29T12:26:25.978Z,97217.34
2023-03-29T12:27:27.825Z,97218.63
2023-03-29T12:28:48.639Z,97229.94
2023-03-29T12:30:08.891Z,97223.81
2023-03-29T12:31:29.428Z,97218.28
2023-03-29T12:32:37.860Z,97220.22
2023-03-29T12:33:39.588Z,97222.16
2023-03-29T12:34:59.992Z,97212.47
2023-03-29T12:36:04.779Z,97211.81
2023-03-29T12:37:09.635Z,97211.81
2023-03-29T12:38:19.961Z,97208.91
2023-03-29T12:39:22.570Z,97217.34
2023-03-29T12:40:27.914Z,97212.81
2023-03-29T12:41:36.418Z,97218.13
2023-03-29T12:42:48.430Z,97218.94
2023-03-29T12:43:51.142Z,97220.88
2023-03-29T12:44:59.977Z,97213.44
2023-03-29T12:46:07.630Z,97207.63
2023-03-29T12:47:18.731Z,97206.81
2023-03-29T12:48:22.630Z,97205.03
2023-03-29T12:49:29.954Z,97204.53
2023-03-29T12:50:37.172Z,97204.06
2023-03-29T12:51:41.285Z,97202.44
2023-03-29T12:52:43.227Z,97200.16
2023-03-29T12:53:45.281Z,97203.09
2023-03-29T12:54:53.642Z,97201.47
2023-03-29T12:56:02.169Z,97206.31